Time;durP1;ratioP1;P1;durP2;ratioP2;P2;SDS_P1;SDS_P2;PMS_P1;PMS_P2;Temp;Humidity;BMP_temperature;BMP_pressure;BME280_temperature;BME280_humidity;BME280_pressure;Samples;Min_cycle;Max_cycle;Signal;HPM_P1;HPM_P2
2023/10/08 00:00:49;;;;;;;23.17;17.67;;;20.60;96.70;;;;;;4993366;28;20096;-76
2023/10/08 00:03:22;;;;;;;19.95;16.67;;;20.60;96.70;;;;;;5012287;28;20045;-75
2023/10/08 00:05:51;;;;;;;18.35;16.40;;;20.60;96.70;;;;;;5005581;28;20054;-75
2023/10/08 00:08:19;;;;;;;20.67;18.55;;;20.60;96.70;;;;;;5005472;28;20456;-76
2023/10/08 00:10:50;;;;;;;24.17;18.50;;;20.50;96.70;;;;;;5020941;28;20065;-77
2023/10/08 00:13:19;;;;;;;21.05;17.85;;;20.50;96.70;;;;;;5015443;28;20041;-76
2023/10/08 00:15:54;;;;;;;20.98;18.08;;;20.60;96.70;;;;;;5006511;28;20761;-77
2023/10/08 00:18:24;;;;;;;20.13;17.33;;;20.60;96.70;;;;;;5013109;28;20423;-77
2023/10/08 00:21:15;;;;;;;22.65;18.27;;;20.60;96.70;;;;;;4996678;28;20050;-76
2023/10/08 00:23:55;;;;;;;21.15;19.05;;;20.60;96.70;;;;;;5005794;28;20042;-76
2023/10/08 00:26:34;;;;;;;20.95;18.75;;;20.70;96.70;;;;;;5014025;28;20056;-76
2023/10/08 00:29:15;;;;;;;21.20;18.75;;;20.70;96.70;;;;;;5004891;28;20045;-77
2023/10/08 00:31:49;;;;;;;20.20;18.08;;;20.80;96.70;;;;;;5008087;28;20044;-76
2023/10/08 00:34:20;;;;;;;23.27;20.35;;;20.80;96.70;;;;;;5005047;28;20145;-76
2023/10/08 00:36:49;;;;;;;21.48;18.98;;;20.80;96.70;;;;;;5009811;28;20605;-76
2023/10/08 00:39:24;;;;;;;24.58;21.35;;;20.80;96.70;;;;;;5013075;28;20041;-76
2023/10/08 00:41:58;;;;;;;25.27;20.58;;;20.80;96.70;;;;;;5011169;28;20072;-76
2023/10/08 00:44:35;;;;;;;23.08;20.58;;;20.70;96.70;;;;;;4994999;28;20057;-76
2023/10/08 00:47:04;;;;;;;24.10;20.73;;;20.80;96.70;;;;;;5003076;28;20140;-76
2023/10/08 00:57:23;;;;;;;24.38;21.73;;;20.80;96.70;;;;;;5008139;28;20057;-77
2023/10/08 00:59:55;;;;;;;23.92;21.38;;;20.90;96.70;;;;;;5013454;28;20060;-76
2023/10/08 01:05:25;;;;;;;22.45;19.73;;;20.80;96.70;;;;;;5022814;28;21313;-75
2023/10/08 01:07:55;;;;;;;22.25;19.95;;;20.70;96.70;;;;;;4987497;28;20049;-76
2023/10/08 01:10:24;;;;;;;21.10;18.60;;;20.80;96.70;;;;;;4986310;28;20248;-76
2023/10/08 01:15:45;;;;;;;22.50;19.42;;;20.70;96.70;;;;;;5005036;28;20072;-75
2023/10/08 01:18:18;;;;;;;23.15;20.67;;;20.60;96.70;;;;;;4988211;28;20092;-76
2023/10/08 01:20:52;;;;;;;22.77;19.75;;;20.70;96.70;;;;;;5003229;28;20092;-76
2023/10/08 01:23:26;;;;;;;22.38;19.77;;;20.80;96.70;;;;;;5007151;28;20054;-76
2023/10/08 01:26:10;;;;;;;22.95;20.45;;;20.80;96.70;;;;;;5011215;28;20073;-76
2023/10/08 01:28:40;;;;;;;25.05;19.48;;;20.80;96.70;;;;;;5009497;28;20048;-75
2023/10/08 01:31:12;;;;;;;20.88;18.67;;;20.70;96.70;;;;;;5011260;28;20146;-75
2023/10/08 01:33:49;;;;;;;26.33;21.20;;;20.70;96.70;;;;;;5011995;28;20054;-75
2023/10/08 01:36:18;;;;;;;23.55;20.67;;;20.80;96.70;;;;;;5004525;28;20046;-77
2023/10/08 01:38:48;;;;;;;27.05;21.33;;;20.80;96.70;;;;;;4998870;28;20071;-77
2023/10/08 01:41:21;;;;;;;23.38;20.88;;;20.80;96.70;;;;;;4983917;28;20050;-76
2023/10/08 01:43:52;;;;;;;22.95;19.10;;;20.80;96.70;;;;;;5013507;28;20519;-76
2023/10/08 01:46:22;;;;;;;21.40;18.58;;;20.80;96.70;;;;;;5004853;28;20049;-76
2023/10/08 01:48:55;;;;;;;19.80;17.65;;;20.80;96.70;;;;;;5010532;28;20487;-76
2023/10/08 01:51:37;;;;;;;19.23;17.17;;;20.70;96.70;;;;;;5016420;28;20046;-76
2023/10/08 01:54:10;;;;;;;20.08;17.88;;;20.70;96.70;;;;;;5005545;28;20056;-75
2023/10/08 01:56:43;;;;;;;20.60;18.40;;;20.70;96.70;;;;;;5006055;28;20424;-76
2023/10/08 01:59:13;;;;;;;19.73;17.70;;;20.70;96.70;;;;;;5008073;28;20073;-75
2023/10/08 02:01:43;;;;;;;18.95;16.92;;;20.70;96.70;;;;;;5014063;28;20645;-76
2023/10/08 02:04:12;;;;;;;18.38;16.38;;;20.70;96.70;;;;;;5015365;28;20041;-77
2023/10/08 02:06:41;;;;;;;18.25;16.38;;;20.70;96.70;;;;;;5013446;28;20072;-77
2023/10/08 02:09:13;;;;;;;21.20;16.75;;;20.70;96.70;;;;;;5011251;28;20132;-77
2023/10/08 02:11:46;;;;;;;18.98;16.45;;;20.70;96.70;;;;;;5006254;28;20120;-77
2023/10/08 02:14:15;;;;;;;19.92;17.63;;;20.70;96.70;;;;;;5006286;28;20034;-77
2023/10/08 02:16:44;;;;;;;21.17;17.33;;;20.70;96.70;;;;;;4984307;28;20054;-76
2023/10/08 02:19:13;;;;;;;21.30;18.02;;;20.70;96.70;;;;;;5007122;28;20053;-77
2023/10/08 02:21:41;;;;;;;21.85;18.83;;;20.70;96.70;;;;;;5005643;28;20096;-77
2023/10/08 02:24:12;;;;;;;23.30;20.05;;;20.70;96.70;;;;;;5014765;28;20099;-77
2023/10/08 02:26:42;;;;;;;23.70;19.15;;;20.70;96.70;;;;;;5006904;28;20482;-77
2023/10/08 02:29:10;;;;;;;22.65;19.92;;;20.70;96.70;;;;;;5015833;28;20041;-77
2023/10/08 02:31:39;;;;;;;26.25;20.88;;;20.70;96.70;;;;;;5020365;28;20049;-77
2023/10/08 02:34:08;;;;;;;22.77;20.33;;;20.70;96.70;;;;;;5008017;28;20073;-76
2023/10/08 02:36:38;;;;;;;22.02;19.48;;;20.70;96.70;;;;;;5003923;28;20108;-77
2023/10/08 02:39:25;;;;;;;28.92;22.05;;;20.70;96.70;;;;;;5013069;28;20041;-77
2023/10/08 02:41:58;;;;;;;23.27;20.60;;;20.80;96.70;;;;;;5017164;28;20074;-75
2023/10/08 02:44:27;;;;;;;25.05;21.83;;;20.80;96.70;;;;;;5012790;28;20048;-76
2023/10/08 02:46:56;;;;;;;23.25;20.75;;;20.80;96.70;;;;;;5003819;28;20096;-77
2023/10/08 02:49:24;;;;;;;23.45;21.05;;;20.80;96.70;;;;;;5013577;28;20599;-76
2023/10/08 02:51:54;;;;;;;26.40;22.17;;;20.80;96.70;;;;;;5016509;28;20037;-77
2023/10/08 02:54:31;;;;;;;25.15;22.02;;;20.80;96.70;;;;;;5001490;28;20108;-76
2023/10/08 02:57:10;;;;;;;29.15;22.70;;;20.80;96.70;;;;;;4994012;28;20037;-77
2023/10/08 02:59:39;;;;;;;29.27;23.95;;;20.80;96.70;;;;;;5005062;28;20050;-77
2023/10/08 03:02:14;;;;;;;31.02;23.63;;;20.70;96.70;;;;;;4999161;28;20046;-77
2023/10/08 03:04:45;;;;;;;31.75;25.85;;;20.70;96.70;;;;;;5015729;28;20042;-76
2023/10/08 03:07:33;;;;;;;33.40;25.75;;;20.70;96.70;;;;;;5009748;28;20042;-77
2023/10/08 03:10:06;;;;;;;31.88;25.20;;;20.70;96.70;;;;;;4998800;28;20056;-77
2023/10/08 03:12:36;;;;;;;30.98;23.75;;;20.70;96.70;;;;;;5018112;28;20393;-77
2023/10/08 03:15:14;;;;;;;32.13;23.05;;;20.70;96.70;;;;;;4994184;28;20062;-77
2023/10/08 03:17:48;;;;;;;29.20;24.88;;;20.80;96.70;;;;;;4989698;28;20619;-76
2023/10/08 03:23:11;;;;;;;31.48;24.70;;;20.80;96.70;;;;;;5019367;28;20045;-77
2023/10/08 03:25:42;;;;;;;32.72;24.83;;;20.80;96.70;;;;;;5006310;28;20164;-76
2023/10/08 03:28:13;;;;;;;31.48;25.00;;;20.80;96.70;;;;;;5005096;28;20099;-77
2023/10/08 03:30:50;;;;;;;35.67;26.27;;;20.90;96.70;;;;;;5013504;28;20116;-77
2023/10/08 03:33:23;;;;;;;34.30;25.10;;;20.90;96.70;;;;;;5014048;28;20057;-77
2023/10/08 03:35:52;;;;;;;31.42;25.67;;;20.80;96.70;;;;;;5007169;28;20125;-77
2023/10/08 03:38:28;;;;;;;26.95;22.20;;;20.80;96.70;;;;;;5000751;28;20037;-76
2023/10/08 03:41:09;;;;;;;26.07;20.87;;;20.80;96.70;;;;;;5016928;28;20045;-77
2023/10/08 03:44:01;;;;;;;20.85;18.70;;;20.90;96.70;;;;;;5007504;28;21066;-77
2023/10/08 03:46:30;;;;;;;22.98;19.17;;;20.80;96.70;;;;;;5006615;28;20080;-76
2023/10/08 03:49:04;;;;;;;20.83;18.60;;;20.90;96.70;;;;;;5010273;28;20554;-77
2023/10/08 03:51:39;;;;;;;21.88;18.85;;;20.90;96.70;;;;;;5006597;28;20042;-77
2023/10/08 03:54:18;;;;;;;27.20;19.60;;;20.80;96.70;;;;;;5010434;28;20046;-77
2023/10/08 03:56:48;;;;;;;26.13;19.98;;;20.80;96.70;;;;;;5006629;28;20057;-77
2023/10/08 03:59:31;;;;;;;22.70;20.23;;;20.80;96.70;;;;;;5004710;28;20184;-77
2023/10/08 04:02:24;;;;;;;23.25;19.77;;;20.80;96.70;;;;;;5011705;28;20141;-77
2023/10/08 04:05:15;;;;;;;23.00;20.08;;;20.70;96.70;;;;;;5000837;28;20053;-77
2023/10/08 04:08:05;;;;;;;24.58;19.83;;;20.70;96.70;;;;;;5019411;28;20166;-77
2023/10/08 04:11:08;;;;;;;25.40;21.15;;;20.70;96.70;;;;;;5009589;28;20038;-77
2023/10/08 04:13:44;;;;;;;26.33;21.38;;;20.70;96.70;;;;;;5007276;28;20056;-77
2023/10/08 04:16:18;;;;;;;24.90;21.48;;;20.70;96.70;;;;;;5013698;28;20057;-77
2023/10/08 04:18:50;;;;;;;26.40;21.48;;;20.70;96.70;;;;;;5013915;28;20037;-76
2023/10/08 04:21:20;;;;;;;26.05;22.92;;;20.70;96.70;;;;;;5016958;28;20049;-77
2023/10/08 04:23:51;;;;;;;31.83;23.58;;;20.70;96.70;;;;;;5014038;28;20611;-77
2023/10/08 04:26:26;;;;;;;30.35;24.45;;;20.70;96.70;;;;;;5008644;28;20077;-77
2023/10/08 04:28:57;;;;;;;29.83;25.88;;;20.70;96.70;;;;;;5011090;28;20049;-77
2023/10/08 04:31:37;;;;;;;36.67;27.58;;;20.70;96.70;;;;;;5006857;28;20054;-77
2023/10/08 04:34:15;;;;;;;33.38;25.92;;;20.70;96.70;;;;;;5010029;28;20963;-77
2023/10/08 04:36:46;;;;;;;34.08;26.50;;;20.70;96.70;;;;;;5012164;28;20056;-77
2023/10/08 04:39:21;;;;;;;29.70;25.63;;;20.70;96.70;;;;;;5020964;28;20045;-76
2023/10/08 04:41:54;;;;;;;30.35;24.63;;;20.70;96.70;;;;;;5004902;28;20132;-76
2023/10/08 04:44:25;;;;;;;32.85;25.08;;;20.70;96.70;;;;;;4988088;28;20156;-77
2023/10/08 04:46:55;;;;;;;31.77;25.15;;;20.80;96.70;;;;;;5011688;28;20041;-77
2023/10/08 04:49:27;;;;;;;32.67;26.55;;;20.80;96.70;;;;;;4992432;28;20136;-77
2023/10/08 04:51:56;;;;;;;35.17;26.48;;;20.80;96.70;;;;;;5008893;28;20041;-76
2023/10/08 04:54:29;;;;;;;35.20;27.60;;;20.80;96.70;;;;;;4986472;28;20676;-76
2023/10/08 04:56:59;;;;;;;34.50;28.00;;;20.80;96.70;;;;;;4989398;28;20103;-77
2023/10/08 04:59:35;;;;;;;35.42;29.73;;;20.80;96.70;;;;;;5013474;28;20424;-77
2023/10/08 05:02:20;;;;;;;37.67;28.90;;;20.70;96.70;;;;;;4999222;28;20050;-77
2023/10/08 05:10:44;;;;;;;37.22;27.42;;;20.70;96.70;;;;;;4998653;28;20060;-77
2023/10/08 05:18:54;;;;;;;31.20;24.15;;;20.60;96.70;;;;;;4984191;28;20132;-76
2023/10/08 05:21:25;;;;;;;33.97;24.30;;;20.60;96.70;;;;;;5002371;28;20120;-77
2023/10/08 05:24:08;;;;;;;32.22;25.83;;;20.70;96.70;;;;;;5012848;28;20458;-75
2023/10/08 05:26:44;;;;;;;30.85;25.40;;;20.70;96.70;;;;;;5019330;28;20447;-77
2023/10/08 05:37:41;;;;;;;33.00;25.40;;;20.70;96.70;;;;;;4973531;28;20463;-77
2023/10/08 05:40:37;;;;;;;30.00;24.20;;;20.70;96.70;;;;;;5007202;28;20551;-78
2023/10/08 05:43:13;;;;;;;31.75;25.48;;;20.70;96.70;;;;;;5015903;28;20060;-77
2023/10/08 05:45:52;;;;;;;31.92;25.27;;;20.70;96.70;;;;;;5018603;28;20042;-77
2023/10/08 05:48:27;;;;;;;30.30;23.63;;;20.70;96.70;;;;;;5010688;28;20049;-76
2023/10/08 05:51:13;;;;;;;33.83;24.08;;;20.70;96.70;;;;;;5015210;28;20069;-76
2023/10/08 05:53:44;;;;;;;30.17;22.10;;;20.70;96.70;;;;;;5003309;28;20077;-76
2023/10/08 05:56:28;;;;;;;28.48;22.73;;;20.80;96.70;;;;;;5012454;28;20136;-76
2023/10/08 05:59:14;;;;;;;27.67;20.30;;;20.80;96.70;;;;;;5014652;28;20049;-75
2023/10/08 06:01:45;;;;;;;27.77;20.55;;;20.80;96.70;;;;;;4983771;28;20105;-76
2023/10/08 06:07:23;;;;;;;;;;;20.80;96.70;;;;;;5008706;28;20100;-76
2023/10/08 06:10:02;;;;;;;29.55;21.25;;;20.80;96.70;;;;;;5017124;28;20026;-77
2023/10/08 06:12:39;;;;;;;30.27;23.48;;;20.80;96.70;;;;;;5015048;28;20573;-75
2023/10/08 06:15:08;;;;;;;32.60;25.40;;;20.80;96.70;;;;;;5014722;28;20057;-77
2023/10/08 06:20:26;;;;;;;27.42;21.30;;;20.90;96.70;;;;;;5018763;28;20064;-76
2023/10/08 06:23:01;;;;;;;24.33;19.15;;;20.90;96.70;;;;;;5006098;28;20404;-77
2023/10/08 06:25:30;;;;;;;26.48;18.55;;;20.90;96.70;;;;;;5012136;28;20041;-77
2023/10/08 06:27:58;;;;;;;24.65;18.95;;;20.90;96.70;;;;;;5011160;28;20041;-76
2023/10/08 06:30:29;;;;;;;23.83;18.13;;;20.90;96.70;;;;;;5000902;28;20057;-76
2023/10/08 06:32:57;;;;;;;25.38;18.40;;;20.90;96.70;;;;;;5008663;28;20296;-76
2023/10/08 06:35:27;;;;;;;24.88;18.17;;;20.90;96.70;;;;;;4990471;28;20065;-77
2023/10/08 06:37:59;;;;;;;25.08;18.08;;;20.90;96.70;;;;;;5011565;28;20057;-75
2023/10/08 06:43:14;;;;;;;23.05;16.98;;;20.90;96.70;;;;;;5018361;28;20042;-76
2023/10/08 06:45:44;;;;;;;21.88;16.30;;;20.90;96.70;;;;;;5005306;28;20049;-77
2023/10/08 06:48:23;;;;;;;23.80;17.15;;;20.90;96.70;;;;;;5020522;28;20048;-77
2023/10/08 06:51:07;;;;;;;21.98;16.70;;;21.00;96.70;;;;;;5007958;28;20084;-76
2023/10/08 06:53:38;;;;;;;22.73;17.23;;;21.00;96.70;;;;;;5007416;28;20046;-77
2023/10/08 06:56:09;;;;;;;28.58;20.73;;;21.00;96.70;;;;;;5016536;28;20230;-76
2023/10/08 06:58:38;;;;;;;26.13;19.73;;;21.10;96.70;;;;;;5006262;28;20049;-75
2023/10/08 07:01:08;;;;;;;29.80;20.90;;;21.00;96.70;;;;;;5007416;28;20054;-76
2023/10/08 07:03:40;;;;;;;29.98;21.67;;;21.10;96.70;;;;;;4991586;28;20050;-76
2023/10/08 07:06:25;;;;;;;28.05;21.35;;;21.10;96.70;;;;;;5005453;28;20049;-77
2023/10/08 07:08:55;;;;;;;26.45;20.60;;;21.10;96.70;;;;;;5014231;28;20153;-76
2023/10/08 07:11:26;;;;;;;28.42;22.08;;;21.20;96.70;;;;;;5023770;28;20045;-77
2023/10/08 07:13:55;;;;;;;30.33;22.58;;;21.20;96.70;;;;;;5013351;28;20077;-77
2023/10/08 07:16:23;;;;;;;28.98;22.75;;;21.30;96.70;;;;;;5009002;28;20484;-76
2023/10/08 07:18:52;;;;;;;30.42;22.58;;;21.30;96.70;;;;;;5010320;28;20393;-76
2023/10/08 07:21:28;;;;;;;30.13;22.83;;;21.30;96.70;;;;;;5013444;28;20054;-76
2023/10/08 07:23:59;;;;;;;;;;;21.30;96.70;;;;;;5013693;28;20127;-77
2023/10/08 07:26:36;;;;;;;24.95;19.92;;;21.30;96.70;;;;;;5015185;28;19925;-76
2023/10/08 07:29:07;;;;;;;26.58;20.42;;;21.40;96.70;;;;;;5015077;28;20136;-76
2023/10/08 07:31:37;;;;;;;30.92;22.23;;;21.40;96.70;;;;;;5008739;28;20136;-75
2023/10/08 07:36:53;;;;;;;30.05;20.05;;;21.30;96.70;;;;;;5002006;28;20057;-78
2023/10/08 07:40:09;;;;;;;29.25;21.02;;;21.40;96.70;;;;;;5016626;28;20041;-79
2023/10/08 07:42:14;;;;;;;25.25;21.05;;;21.40;96.70;;;;;;4999771;28;20054;-78
2023/10/08 07:44:42;;;;;;;23.42;18.88;;;21.40;96.70;;;;;;5015585;28;20045;-78
2023/10/08 07:47:11;;;;;;;25.27;19.02;;;21.40;96.70;;;;;;5007071;28;20131;-78
2023/10/08 07:49:43;;;;;;;25.05;19.30;;;21.50;96.70;;;;;;5019658;28;20133;-78
2023/10/08 07:52:15;;;;;;;23.77;18.95;;;21.50;96.70;;;;;;5002715;28;20053;-78
2023/10/08 07:54:46;;;;;;;26.70;20.52;;;21.50;96.70;;;;;;5005994;28;20403;-78
2023/10/08 07:57:25;;;;;;;25.83;21.27;;;21.60;96.70;;;;;;5005659;28;20518;-77
2023/10/08 08:00:17;;;;;;;29.58;21.55;;;21.60;96.70;;;;;;5020653;28;20051;-77
2023/10/08 08:02:44;;;;;;;27.58;20.52;;;21.60;96.70;;;;;;5017267;28;20044;-78
2023/10/08 08:05:16;;;;;;;27.42;21.70;;;21.70;96.70;;;;;;5004012;28;20045;-77
2023/10/08 08:07:56;;;;;;;26.73;21.05;;;21.80;96.70;;;;;;5012981;28;20069;-77
2023/10/08 08:10:26;;;;;;;27.80;21.40;;;21.80;96.70;;;;;;5018547;28;20136;-77
2023/10/08 08:12:56;;;;;;;27.00;21.05;;;21.80;96.70;;;;;;5019394;28;20451;-76
2023/10/08 08:15:27;;;;;;;26.10;20.15;;;21.80;96.70;;;;;;4989273;28;20133;-76
2023/10/08 08:17:55;;;;;;;26.17;19.90;;;21.90;96.70;;;;;;5023536;28;20627;-76
2023/10/08 08:20:34;;;;;;;28.50;21.65;;;22.10;96.70;;;;;;4995584;28;20043;-77
2023/10/08 08:23:07;;;;;;;28.92;21.50;;;22.20;96.70;;;;;;5007216;28;20484;-80
2023/10/08 08:25:55;;;;;;;25.00;19.48;;;22.20;96.70;;;;;;5005191;28;20030;-78
2023/10/08 08:28:24;;;;;;;26.92;22.33;;;22.20;96.70;;;;;;5016534;28;20043;-79
2023/10/08 08:30:52;;;;;;;28.48;22.05;;;22.30;96.70;;;;;;5009572;28;20171;-80
2023/10/08 08:33:24;;;;;;;30.08;22.08;;;22.30;96.70;;;;;;5005482;28;20053;-76
2023/10/08 08:35:59;;;;;;;30.38;22.88;;;22.30;96.70;;;;;;5011572;28;20054;-77
2023/10/08 08:38:32;;;;;;;29.83;23.70;;;22.20;96.70;;;;;;5022013;28;20064;-78
2023/10/08 08:41:12;;;;;;;29.40;23.52;;;22.20;96.70;;;;;;5014571;28;20471;-78
2023/10/08 08:43:44;;;;;;;28.73;23.23;;;22.20;96.70;;;;;;5004139;28;20050;-77
2023/10/08 08:46:12;;;;;;;29.23;23.52;;;22.30;96.70;;;;;;5009121;28;20049;-78
2023/10/08 08:48:41;;;;;;;28.48;21.85;;;22.30;96.70;;;;;;5006953;28;20087;-78
2023/10/08 08:51:09;;;;;;;28.55;23.13;;;22.30;96.70;;;;;;4991063;28;20439;-79
2023/10/08 08:53:37;;;;;;;31.13;22.58;;;22.40;96.70;;;;;;5003621;28;20034;-75
2023/10/08 08:56:12;;;;;;;28.60;21.42;;;22.50;96.70;;;;;;5006224;28;20060;-77
2023/10/08 08:58:42;;;;;;;24.40;20.35;;;22.70;96.70;;;;;;5004604;28;20038;-77
2023/10/08 09:01:14;;;;;;;28.40;21.45;;;22.80;96.70;;;;;;4998357;28;20119;-77
2023/10/08 09:03:42;;;;;;;25.88;21.00;;;22.90;96.70;;;;;;5003299;28;20045;-77
2023/10/08 09:06:11;;;;;;;30.08;22.83;;;23.00;96.70;;;;;;5000794;28;20050;-77
2023/10/08 09:08:45;;;;;;;27.48;22.05;;;23.00;96.70;;;;;;5012065;28;20443;-76
2023/10/08 09:11:19;;;;;;;25.05;21.38;;;23.00;96.70;;;;;;5015123;28;20052;-76
2023/10/08 09:13:47;;;;;;;27.17;21.52;;;23.10;96.70;;;;;;5012914;28;20053;-76
2023/10/08 09:16:16;;;;;;;24.67;21.52;;;23.20;96.70;;;;;;5013765;28;20389;-76
2023/10/08 09:18:46;;;;;;;26.40;21.33;;;23.30;96.70;;;;;;5005923;28;20467;-77
2023/10/08 09:21:18;;;;;;;27.58;21.77;;;23.30;96.70;;;;;;5003308;28;20046;-76
2023/10/08 09:23:50;;;;;;;24.88;20.38;;;23.40;96.70;;;;;;5004755;28;20073;-76
2023/10/08 09:26:23;;;;;;;28.55;22.23;;;23.40;96.70;;;;;;4994605;28;20120;-75
2023/10/08 09:28:53;;;;;;;26.27;20.50;;;23.40;96.70;;;;;;4991128;28;21660;-76
2023/10/08 09:31:23;;;;;;;24.45;21.48;;;23.40;96.70;;;;;;5012666;28;20732;-76
2023/10/08 09:33:55;;;;;;;23.60;20.10;;;23.70;96.70;;;;;;5021358;28;20583;-76
2023/10/08 09:36:31;;;;;;;20.83;18.15;;;23.90;96.70;;;;;;4997386;28;20129;-77
2023/10/08 09:39:06;;;;;;;23.27;20.30;;;24.00;96.70;;;;;;5011324;28;20501;-77
2023/10/08 09:41:38;;;;;;;25.92;21.42;;;24.10;96.70;;;;;;5006431;28;20057;-76
2023/10/08 09:44:09;;;;;;;25.50;20.80;;;24.10;96.70;;;;;;5009205;28;20474;-76
2023/10/08 09:46:40;;;;;;;23.45;20.83;;;24.10;96.70;;;;;;5023321;28;20044;-77
2023/10/08 09:49:12;;;;;;;27.40;22.13;;;23.90;96.70;;;;;;5006582;28;20073;-77
2023/10/08 09:51:40;;;;;;;23.98;21.38;;;23.90;96.70;;;;;;4995865;28;20108;-78
2023/10/08 09:54:13;;;;;;;24.58;20.52;;;23.80;96.70;;;;;;5013720;28;20092;-78
2023/10/08 09:56:44;;;;;;;24.50;20.00;;;23.80;96.70;;;;;;5015011;28;20060;-78
2023/10/08 09:59:15;;;;;;;25.15;21.80;;;23.80;96.70;;;;;;5013134;28;20065;-77
2023/10/08 10:01:44;;;;;;;22.38;19.98;;;23.90;96.70;;;;;;5003866;28;20061;-79
2023/10/08 10:04:23;;;;;;;24.95;20.50;;;24.00;96.70;;;;;;4993775;28;20396;-80
2023/10/08 10:06:52;;;;;;;23.45;20.48;;;24.10;96.70;;;;;;4989552;28;20060;-79
2023/10/08 10:09:24;;;;;;;23.00;19.70;;;24.00;96.70;;;;;;5021560;28;20044;-79
2023/10/08 10:11:54;;;;;;;23.08;19.38;;;24.10;96.70;;;;;;5022337;28;20056;-78
2023/10/08 10:14:23;;;;;;;26.10;20.20;;;24.20;96.70;;;;;;5018079;28;20828;-79
2023/10/08 10:17:10;;;;;;;21.27;18.83;;;24.30;96.70;;;;;;5002282;28;20054;-78
2023/10/08 10:19:50;;;;;;;21.98;18.58;;;24.50;96.70;;;;;;4988846;28;20052;-80
2023/10/08 10:22:29;;;;;;;20.92;18.75;;;24.60;96.70;;;;;;5002805;28;20137;-78
2023/10/08 10:25:04;;;;;;;23.67;19.55;;;24.60;96.70;;;;;;5002942;28;20546;-77
2023/10/08 10:27:34;;;;;;;24.20;17.95;;;24.50;96.70;;;;;;5010872;28;20104;-79
2023/10/08 10:30:08;;;;;;;24.50;18.95;;;24.60;96.70;;;;;;5011416;28;20060;-80
2023/10/08 10:32:36;;;;;;;23.95;19.08;;;24.80;96.70;;;;;;5006320;28;20046;-80
2023/10/08 10:35:05;;;;;;;19.55;17.27;;;24.90;96.70;;;;;;5012791;28;20717;-79
2023/10/08 10:37:47;;;;;;;20.50;17.67;;;25.00;96.70;;;;;;5008218;28;20041;-79
2023/10/08 10:40:28;;;;;;;21.35;18.08;;;25.10;96.70;;;;;;5007800;28;20065;-79
2023/10/08 10:43:00;;;;;;;20.42;18.30;;;25.20;96.70;;;;;;5011699;28;20511;-81
2023/10/08 10:46:19;;;;;;;18.63;16.45;;;25.20;96.70;;;;;;5027857;28;20069;-83
2023/10/08 10:48:25;;;;;;;20.05;17.95;;;25.20;96.70;;;;;;5004912;28;20057;-83
2023/10/08 10:53:44;;;;;;;20.15;17.88;;;25.40;96.70;;;;;;5013156;28;20045;-85
2023/10/08 10:56:18;;;;;;;20.15;17.33;;;25.40;96.70;;;;;;5005975;28;20057;-87
2023/10/08 10:58:53;;;;;;;22.92;18.45;;;25.50;96.70;;;;;;5008261;28;20045;-87
2023/10/08 11:01:29;;;;;;;20.30;17.23;;;25.50;96.70;;;;;;5017667;28;20058;-85
2023/10/08 11:03:58;;;;;;;18.90;16.88;;;25.60;96.70;;;;;;4988761;28;20045;-87
2023/10/08 11:06:26;;;;;;;22.00;18.95;;;25.70;96.70;;;;;;5017240;28;20042;-88
2023/10/08 11:08:58;;;;;;;20.48;17.05;;;25.80;96.70;;;;;;5001395;28;20097;-86
2023/10/08 11:11:27;;;;;;;18.90;17.00;;;25.80;96.70;;;;;;5001901;28;20050;-83
2023/10/08 11:14:00;;;;;;;21.52;17.15;;;25.90;96.70;;;;;;5008648;28;20057;-84
2023/10/08 11:16:31;;;;;;;20.70;17.00;;;26.10;96.70;;;;;;5017976;28;20069;-86
2023/10/08 11:19:06;;;;;;;19.27;17.00;;;26.20;96.70;;;;;;5004372;28;20153;-87
2023/10/08 11:21:48;;;;;;;18.60;16.73;;;26.30;96.70;;;;;;5012104;28;20046;-86
2023/10/08 11:24:28;;;;;;;19.00;16.48;;;26.40;96.70;;;;;;5009044;28;20139;-84
2023/10/08 11:29:48;;;;;;;17.45;15.65;;;26.50;96.70;;;;;;5034297;28;20049;-83
2023/10/08 11:32:25;;;;;;;16.60;14.90;;;26.70;96.70;;;;;;5007779;28;20089;-84
2023/10/08 11:34:55;;;;;;;20.85;15.13;;;26.80;96.70;;;;;;5003218;28;20050;-81
2023/10/08 11:37:33;;;;;;;17.70;15.23;;;26.90;96.70;;;;;;5011975;28;20044;-85
2023/10/08 11:40:28;;;;;;;17.20;15.23;;;26.90;96.70;;;;;;5009204;28;20060;-86
2023/10/08 11:42:51;;;;;;;15.80;14.30;;;27.10;96.70;;;;;;5008353;28;20044;-80
2023/10/08 11:45:24;;;;;;;16.23;14.50;;;27.20;96.70;;;;;;5006192;28;20573;-80
2023/10/08 11:47:55;;;;;;;16.67;14.65;;;27.40;96.70;;;;;;5007077;28;20045;-79
2023/10/08 11:50:30;;;;;;;16.80;14.30;;;27.40;96.70;;;;;;5006299;28;20389;-78
2023/10/08 11:53:05;;;;;;;16.73;14.07;;;27.40;96.70;;;;;;5013928;28;20124;-81
2023/10/08 11:55:35;;;;;;;16.00;14.27;;;27.60;96.70;;;;;;5020379;28;20047;-83
2023/10/08 11:58:11;;;;;;;15.20;13.60;;;27.70;96.70;;;;;;5001920;28;20483;-80
2023/10/08 12:00:45;;;;;;;16.02;14.43;;;27.60;96.70;;;;;;5008831;28;20148;-81
2023/10/08 12:03:18;;;;;;;17.92;13.18;;;27.60;96.70;;;;;;5011476;28;20148;-81
2023/10/08 12:05:48;;;;;;;15.40;13.57;;;27.70;96.70;;;;;;5014249;28;20053;-81
2023/10/08 12:08:22;;;;;;;17.15;13.20;;;27.80;96.70;;;;;;5007446;28;20049;-80
2023/10/08 12:10:54;;;;;;;13.65;12.35;;;27.90;96.70;;;;;;5006557;28;21474;-82
2023/10/08 12:13:28;;;;;;;16.98;13.75;;;28.00;96.70;;;;;;5015181;28;20111;-81
2023/10/08 12:16:12;;;;;;;14.45;13.02;;;28.00;96.70;;;;;;5011032;28;20050;-82
2023/10/08 12:18:42;;;;;;;14.32;12.60;;;28.10;96.70;;;;;;5008417;28;20136;-83
2023/10/08 12:21:14;;;;;;;13.35;11.95;;;28.10;96.70;;;;;;4997286;28;20045;-83
2023/10/08 12:23:45;;;;;;;12.90;11.60;;;28.10;96.70;;;;;;5007296;28;20054;-83
2023/10/08 12:26:18;;;;;;;13.88;12.55;;;28.20;96.70;;;;;;5008908;28;20072;-82
2023/10/08 12:28:48;;;;;;;13.20;11.85;;;28.30;96.70;;;;;;5008311;28;20041;-83
2023/10/08 12:31:22;;;;;;;14.25;12.10;;;28.10;96.70;;;;;;5007000;28;20042;-83
2023/10/08 12:34:00;;;;;;;12.85;11.35;;;28.20;96.70;;;;;;5010112;28;20157;-81
2023/10/08 12:36:36;;;;;;;13.52;12.15;;;28.30;96.70;;;;;;4999238;28;20050;-83
2023/10/08 12:39:14;;;;;;;13.15;11.85;;;28.40;96.70;;;;;;5003129;28;20069;-83
2023/10/08 12:41:47;;;;;;;13.40;11.48;;;28.50;96.70;;;;;;5003156;28;20802;-82
2023/10/08 12:44:19;;;;;;;13.27;11.63;;;28.70;96.70;;;;;;5006690;28;20046;-82
2023/10/08 12:46:51;;;;;;;13.65;12.25;;;28.80;96.70;;;;;;5006681;28;20065;-82
2023/10/08 12:49:22;;;;;;;12.45;11.25;;;28.70;96.70;;;;;;5008760;28;20041;-82
2023/10/08 12:51:53;;;;;;;13.02;11.45;;;28.80;96.70;;;;;;5012444;28;20084;-85
2023/10/08 12:54:23;;;;;;;13.43;11.98;;;28.80;96.70;;;;;;5009103;28;20038;-82
2023/10/08 12:56:55;;;;;;;13.95;12.05;;;28.90;96.70;;;;;;5023691;28;20060;-84
2023/10/08 12:59:26;;;;;;;13.13;11.80;;;28.90;96.70;;;;;;5006026;28;20056;-83
2023/10/08 13:02:07;;;;;;;13.48;12.15;;;29.00;96.70;;;;;;5019535;28;21336;-83
2023/10/08 13:04:41;;;;;;;13.95;12.25;;;29.00;96.70;;;;;;5009938;28;20037;-81
2023/10/08 13:07:11;;;;;;;12.63;11.32;;;29.10;96.70;;;;;;4996109;28;20085;-82
2023/10/08 13:09:42;;;;;;;11.77;10.70;;;29.10;96.70;;;;;;5006278;28;20540;-82
2023/10/08 13:12:15;;;;;;;12.15;10.98;;;29.10;96.70;;;;;;5006499;28;20053;-82
2023/10/08 13:14:44;;;;;;;13.10;10.43;;;29.10;96.70;;;;;;5015188;28;20046;-84
2023/10/08 13:17:15;;;;;;;11.63;10.48;;;29.20;96.70;;;;;;5006715;28;20149;-84
2023/10/08 13:19:46;;;;;;;11.05;10.15;;;29.30;96.70;;;;;;5006163;28;20054;-85
2023/10/08 13:22:19;;;;;;;11.73;10.55;;;29.40;96.70;;;;;;4998701;28;20046;-81
2023/10/08 13:24:50;;;;;;;11.88;10.82;;;29.50;96.70;;;;;;5006318;28;20079;-84
2023/10/08 13:27:20;;;;;;;12.20;10.88;;;29.50;96.70;;;;;;5008281;28;20048;-83
2023/10/08 13:29:51;;;;;;;12.18;10.98;;;29.40;96.70;;;;;;5003473;28;20054;-84
2023/10/08 13:32:24;;;;;;;12.00;10.55;;;29.40;96.70;;;;;;5005802;28;20054;-83
2023/10/08 13:34:56;;;;;;;13.02;11.73;;;29.50;96.70;;;;;;5015984;28;20488;-83
2023/10/08 13:37:25;;;;;;;12.38;11.20;;;29.70;96.70;;;;;;4998591;28;20479;-82
2023/10/08 13:39:55;;;;;;;11.85;10.63;;;29.70;96.70;;;;;;5023682;28;20049;-83
2023/10/08 13:42:23;;;;;;;12.88;11.55;;;29.70;96.70;;;;;;5008196;28;20136;-82
2023/10/08 13:44:53;;;;;;;12.93;11.60;;;29.70;96.70;;;;;;4997937;28;20048;-82
2023/10/08 13:47:29;;;;;;;12.25;11.05;;;29.60;96.70;;;;;;5012932;28;20050;-84
2023/10/08 13:49:58;;;;;;;12.68;11.20;;;29.40;96.70;;;;;;5005561;28;20128;-83
2023/10/08 13:52:26;;;;;;;11.70;10.60;;;29.40;96.70;;;;;;4985271;28;20050;-81